sensor_id;sensor_type;location;lat;lon;timestamp;pressure;altitude;pressure_sealevel;temperature;humidity
78073;BME280;67281;48.770;11.440;2023-03-21T00:01:52;97423.88;;;17.94;44.30
78073;BME280;67281;48.770;11.440;2023-03-21T00:04:23;97419.72;;;17.92;44.50
78073;BME280;67281;48.770;11.440;2023-03-21T00:06:51;97425.84;;;17.92;44.66
78073;BME280;67281;48.770;11.440;2023-03-21T00:09:18;97413.59;;;17.91;44.33
78073;BME280;67281;48.770;11.440;2023-03-21T00:11:46;97418.88;;;17.91;44.03
78073;BME280;67281;48.770;11.440;2023-03-21T00:14:13;97420.69;;;17.91;44.17
78073;BME280;67281;48.770;11.440;2023-03-21T00:16:46;97415.41;;;17.91;44.25
78073;BME280;67281;48.770;11.440;2023-03-21T00:19:37;97416.22;;;17.91;44.71
78073;BME280;67281;48.770;11.440;2023-03-21T00:22:04;97418.19;;;17.89;44.58
78073;BME280;67281;48.770;11.440;2023-03-21T00:24:50;97420.00;;;17.89;44.64
78073;BME280;67281;48.770;11.440;2023-03-21T00:27:17;97426.28;;;17.88;44.61
78073;BME280;67281;48.770;11.440;2023-03-21T00:30:08;97421.00;;;17.88;43.97
78073;BME280;67281;48.770;11.440;2023-03-21T00:32:35;97419.31;;;17.87;44.54
78073;BME280;67281;48.770;11.440;2023-03-21T00:35:14;97424.78;;;17.85;44.66
78073;BME280;67281;48.770;11.440;2023-03-21T00:38:01;97415.00;;;17.86;44.44
78073;BME280;67281;48.770;11.440;2023-03-21T00:40:28;97415.00;;;17.86;44.26
78073;BME280;67281;48.770;11.440;2023-03-21T00:43:05;97415.16;;;17.84;44.74
78073;BME280;67281;48.770;11.440;2023-03-21T00:45:32;97417.81;;;17.84;44.34
78073;BME280;67281;48.770;11.440;2023-03-21T00:47:58;97415.00;;;17.86;44.66
78073;BME280;67281;48.770;11.440;2023-03-21T00:50:25;97414.19;;;17.85;44.46
78073;BME280;67281;48.770;11.440;2023-03-21T00:52:52;97412.50;;;17.84;44.19
78073;BME280;67281;48.770;11.440;2023-03-21T00:55:19;97400.09;;;17.85;44.47
78073;BME280;67281;48.770;11.440;2023-03-21T00:57:46;97407.19;;;17.84;44.07
78073;BME280;67281;48.770;11.440;2023-03-21T01:00:26;97399.41;;;17.83;44.23
78073;BME280;67281;48.770;11.440;2023-03-21T01:02:53;97391.44;;;17.83;44.25
78073;BME280;67281;48.770;11.440;2023-03-21T01:05:47;97397.75;;;17.82;44.22
78073;BME280;67281;48.770;11.440;2023-03-21T01:08:40;97397.06;;;17.80;43.93
78073;BME280;67281;48.770;11.440;2023-03-21T01:11:21;97395.25;;;17.80;43.95
78073;BME280;67281;48.770;11.440;2023-03-21T01:13:49;97397.22;;;17.78;44.30
78073;BME280;67281;48.770;11.440;2023-03-21T01:16:27;97391.78;;;17.80;44.30
78073;BME280;67281;48.770;11.440;2023-03-21T01:18:54;97392.91;;;17.77;44.02
78073;BME280;67281;48.770;11.440;2023-03-21T01:21:21;97391.09;;;17.78;44.29
78073;BME280;67281;48.770;11.440;2023-03-21T01:23:48;97392.75;;;17.79;43.91
78073;BME280;67281;48.770;11.440;2023-03-21T01:26:15;97384.97;;;17.77;43.95
78073;BME280;67281;48.770;11.440;2023-03-21T01:28:43;97386.78;;;17.77;43.96
78073;BME280;67281;48.770;11.440;2023-03-21T01:31:12;97392.22;;;17.75;44.09
78073;BME280;67281;48.770;11.440;2023-03-21T01:33:40;97390.41;;;17.76;43.95
78073;BME280;67281;48.770;11.440;2023-03-21T01:36:08;97391.09;;;17.78;44.53
78073;BME280;67281;48.770;11.440;2023-03-21T01:38:43;97384.28;;;17.75;44.25
78073;BME280;67281;48.770;11.440;2023-03-21T01:41:29;97391.38;;;17.75;43.81
78073;BME280;67281;48.770;11.440;2023-03-21T01:44:13;97389.72;;;17.73;44.42
78073;BME280;67281;48.770;11.440;2023-03-21T01:46:43;97381.78;;;17.73;44.30
78073;BME280;67281;48.770;11.440;2023-03-21T01:49:37;97377.44;;;17.72;43.93
78073;BME280;67281;48.770;11.440;2023-03-21T01:52:09;97380.25;;;17.71;44.66
78073;BME280;67281;48.770;11.440;2023-03-21T01:54:53;97375.09;;;17.69;44.31
78073;BME280;67281;48.770;11.440;2023-03-21T01:57:26;97374.13;;;17.70;44.41
78073;BME280;67281;48.770;11.440;2023-03-21T02:00:10;97370.78;;;17.68;44.25
78073;BME280;67281;48.770;11.440;2023-03-21T02:02:42;97365.47;;;17.68;44.11
78073;BME280;67281;48.770;11.440;2023-03-21T02:05:21;97365.47;;;17.68;44.58
78073;BME280;67281;48.770;11.440;2023-03-21T02:07:51;97369.09;;;17.67;44.53
78073;BME280;67281;48.770;11.440;2023-03-21T02:10:18;97365.63;;;17.67;44.55
78073;BME280;67281;48.770;11.440;2023-03-21T02:12:45;97367.44;;;17.66;44.03
78073;BME280;67281;48.770;11.440;2023-03-21T02:15:12;97365.63;;;17.67;43.86
78073;BME280;67281;48.770;11.440;2023-03-21T02:17:52;97363.13;;;17.65;44.01
78073;BME280;67281;48.770;11.440;2023-03-21T02:25:55;97360.47;;;17.65;44.20
78073;BME280;67281;48.770;11.440;2023-03-21T02:28:39;97362.41;;;17.63;44.23
78073;BME280;67281;48.770;11.440;2023-03-21T02:31:39;97359.59;;;17.65;44.43
78073;BME280;67281;48.770;11.440;2023-03-21T02:37:19;97358.09;;;17.62;43.95
78073;BME280;67281;48.770;11.440;2023-03-21T02:48:28;97357.56;;;17.59;44.36
78073;BME280;67281;48.770;11.440;2023-03-21T02:51:17;97350.44;;;17.59;44.23
78073;BME280;67281;48.770;11.440;2023-03-21T02:53:49;97361.19;;;17.58;44.27
78073;BME280;67281;48.770;11.440;2023-03-21T02:56:38;97353.09;;;17.59;44.50
78073;BME280;67281;48.770;11.440;2023-03-21T02:59:06;97356.56;;;17.60;44.51
78073;BME280;67281;48.770;11.440;2023-03-21T03:01:33;97359.50;;;17.57;44.21
78073;BME280;67281;48.770;11.440;2023-03-21T03:04:01;97350.72;;;17.56;44.47
78073;BME280;67281;48.770;11.440;2023-03-21T03:06:34;97353.22;;;17.58;44.21
78073;BME280;67281;48.770;11.440;2023-03-21T03:09:31;97349.06;;;17.55;43.93
78073;BME280;67281;48.770;11.440;2023-03-21T03:14:58;97350.88;;;17.55;43.91
78073;BME280;67281;48.770;11.440;2023-03-21T03:17:50;97350.03;;;17.54;43.97
78073;BME280;67281;48.770;11.440;2023-03-21T03:23:16;97336.78;;;17.54;44.20
78073;BME280;67281;48.770;11.440;2023-03-21T03:28:30;97346.72;;;17.52;43.90
78073;BME280;67281;48.770;11.440;2023-03-21T03:31:00;97346.72;;;17.52;44.58
78073;BME280;67281;48.770;11.440;2023-03-21T03:33:37;97346.03;;;17.50;44.19
78073;BME280;67281;48.770;11.440;2023-03-21T03:36:09;97343.53;;;17.49;43.89
78073;BME280;67281;48.770;11.440;2023-03-21T03:38:50;97344.50;;;17.48;44.67
78073;BME280;67281;48.770;11.440;2023-03-21T03:41:21;97333.75;;;17.49;43.87
78073;BME280;67281;48.770;11.440;2023-03-21T03:43:54;97331.25;;;17.48;44.26
78073;BME280;67281;48.770;11.440;2023-03-21T03:47:16;97337.38;;;17.48;44.21
78073;BME280;67281;48.770;11.440;2023-03-21T03:49:25;97342.69;;;17.48;44.01
78073;BME280;67281;48.770;11.440;2023-03-21T03:52:03;97328.47;;;17.49;44.69
78073;BME280;67281;48.770;11.440;2023-03-21T03:54:37;97334.19;;;17.45;43.59
78073;BME280;67281;48.770;11.440;2023-03-21T03:57:06;97342.00;;;17.46;44.56
78073;BME280;67281;48.770;11.440;2023-03-21T03:59:35;97334.06;;;17.46;44.21
78073;BME280;67281;48.770;11.440;2023-03-21T04:02:03;97338.50;;;17.46;44.09
78073;BME280;67281;48.770;11.440;2023-03-21T04:04:31;97341.16;;;17.46;44.51
78073;BME280;67281;48.770;11.440;2023-03-21T04:06:58;97334.19;;;17.45;44.21
78073;BME280;67281;48.770;11.440;2023-03-21T04:09:25;97345.63;;;17.45;44.53
78073;BME280;67281;48.770;11.440;2023-03-21T04:12:10;97337.16;;;17.41;44.24
78073;BME280;67281;48.770;11.440;2023-03-21T04:14:38;97328.38;;;17.41;44.42
78073;BME280;67281;48.770;11.440;2023-03-21T04:17:12;97339.94;;;17.40;43.89
78073;BME280;67281;48.770;11.440;2023-03-21T04:19:39;97337.97;;;17.42;44.48
78073;BME280;67281;48.770;11.440;2023-03-21T04:22:06;97338.13;;;17.40;43.67
78073;BME280;67281;48.770;11.440;2023-03-21T04:24:33;97337.28;;;17.40;44.45
78073;BME280;67281;48.770;11.440;2023-03-21T04:27:03;97333.13;;;17.37;43.82
78073;BME280;67281;48.770;11.440;2023-03-21T04:29:31;97334.09;;;17.36;44.48
78073;BME280;67281;48.770;11.440;2023-03-21T04:31:59;97334.94;;;17.37;44.40
78073;BME280;67281;48.770;11.440;2023-03-21T04:34:26;97336.59;;;17.38;43.93
78073;BME280;67281;48.770;11.440;2023-03-21T04:36:54;97335.91;;;17.36;43.91
78073;BME280;67281;48.770;11.440;2023-03-21T04:39:21;97330.63;;;17.36;44.58
78073;BME280;67281;48.770;11.440;2023-03-21T04:41:50;97329.94;;;17.34;43.84
78073;BME280;67281;48.770;11.440;2023-03-21T04:44:17;97327.44;;;17.32;44.39
78073;BME280;67281;48.770;11.440;2023-03-21T04:46:44;97328.25;;;17.33;44.22
78073;BME280;67281;48.770;11.440;2023-03-21T04:49:11;97324.63;;;17.34;43.87
78073;BME280;67281;48.770;11.440;2023-03-21T04:51:38;97326.59;;;17.32;44.53
78073;BME280;67281;48.770;11.440;2023-03-21T04:54:05;97330.91;;;17.33;44.05
78073;BME280;67281;48.770;11.440;2023-03-21T04:56:32;97329.09;;;17.33;44.51
78073;BME280;67281;48.770;11.440;2023-03-21T04:59:05;97333.56;;;17.33;43.77
78073;BME280;67281;48.770;11.440;2023-03-21T05:01:32;97326.59;;;17.32;44.07
78073;BME280;67281;48.770;11.440;2023-03-21T05:04:00;97331.91;;;17.32;44.49
78073;BME280;67281;48.770;11.440;2023-03-21T05:06:27;97325.91;;;17.30;43.89
78073;BME280;67281;48.770;11.440;2023-03-21T05:08:55;97327.72;;;17.29;43.81
78073;BME280;67281;48.770;11.440;2023-03-21T05:11:26;97333.84;;;17.30;44.30
78073;BME280;67281;48.770;11.440;2023-03-21T05:13:53;97341.94;;;17.28;44.40
78073;BME280;67281;48.770;11.440;2023-03-21T05:16:20;97338.31;;;17.29;44.55
78073;BME280;67281;48.770;11.440;2023-03-21T05:18:51;97340.97;;;17.29;44.67
78073;BME280;67281;48.770;11.440;2023-03-21T05:21:21;97345.28;;;17.30;44.38
78073;BME280;67281;48.770;11.440;2023-03-21T05:23:48;97348.09;;;17.29;44.16
78073;BME280;67281;48.770;11.440;2023-03-21T05:26:21;97334.84;;;17.29;43.75
78073;BME280;67281;48.770;11.440;2023-03-21T05:28:48;97340.28;;;17.27;44.39
78073;BME280;67281;48.770;11.440;2023-03-21T05:31:17;97334.69;;;17.30;44.60
78073;BME280;67281;48.770;11.440;2023-03-21T05:33:44;97341.81;;;17.30;44.27
78073;BME280;67281;48.770;11.440;2023-03-21T05:36:11;97343.91;;;17.26;44.12
78073;BME280;67281;48.770;11.440;2023-03-21T05:38:38;97351.03;;;17.26;44.21
78073;BME280;67281;48.770;11.440;2023-03-21T05:41:15;97342.38;;;17.24;44.42
78073;BME280;67281;48.770;11.440;2023-03-21T05:43:44;97347.69;;;17.24;44.22
78073;BME280;67281;48.770;11.440;2023-03-21T05:46:11;97343.91;;;17.26;44.25
78073;BME280;67281;48.770;11.440;2023-03-21T05:48:38;97343.38;;;17.23;44.10
78073;BME280;67281;48.770;11.440;2023-03-21T05:51:05;97346.69;;;17.25;44.34
78073;BME280;67281;48.770;11.440;2023-03-21T05:53:32;97347.00;;;17.22;44.27
78073;BME280;67281;48.770;11.440;2023-03-21T05:55:59;97344.34;;;17.22;43.79
78073;BME280;67281;48.770;11.440;2023-03-21T05:58:26;97347.97;;;17.21;44.09
78073;BME280;67281;48.770;11.440;2023-03-21T06:00:53;97354.94;;;17.22;44.06
78073;BME280;67281;48.770;11.440;2023-03-21T06:03:20;97346.84;;;17.23;43.58
78073;BME280;67281;48.770;11.440;2023-03-21T06:05:47;97347.84;;;17.22;44.03
78073;BME280;67281;48.770;11.440;2023-03-21T06:08:14;97356.59;;;17.23;43.99
78073;BME280;67281;48.770;11.440;2023-03-21T06:10:41;97354.09;;;17.21;44.40
78073;BME280;67281;48.770;11.440;2023-03-21T06:13:08;97353.28;;;17.21;43.73
78073;BME280;67281;48.770;11.440;2023-03-21T06:15:37;97350.63;;;17.21;43.60
78073;BME280;67281;48.770;11.440;2023-03-21T06:18:05;97351.75;;;17.18;44.45
78073;BME280;67281;48.770;11.440;2023-03-21T06:20:31;97348.13;;;17.19;43.85
78073;BME280;67281;48.770;11.440;2023-03-21T06:22:58;97364.84;;;17.20;43.99
78073;BME280;67281;48.770;11.440;2023-03-21T06:25:26;97353.41;;;17.19;43.69
78073;BME280;67281;48.770;11.440;2023-03-21T06:27:53;97362.34;;;17.18;43.92
78073;BME280;67281;48.770;11.440;2023-03-21T06:30:20;97357.19;;;17.17;43.69
78073;BME280;67281;48.770;11.440;2023-03-21T06:32:47;97356.34;;;17.16;43.86
78073;BME280;67281;48.770;11.440;2023-03-21T06:35:13;97359.84;;;17.17;43.80
78073;BME280;67281;48.770;11.440;2023-03-21T06:37:41;97355.22;;;17.19;44.26
78073;BME280;67281;48.770;11.440;2023-03-21T06:40:09;97361.50;;;17.18;43.63
78073;BME280;67281;48.770;11.440;2023-03-21T06:42:36;97363.19;;;17.19;43.71
78073;BME280;67281;48.770;11.440;2023-03-21T06:45:03;97367.78;;;17.17;43.63
78073;BME280;67281;48.770;11.440;2023-03-21T06:47:30;97365.13;;;17.17;44.22
78073;BME280;67281;48.770;11.440;2023-03-21T06:49:57;97366.94;;;17.16;44.10
78073;BME280;67281;48.770;11.440;2023-03-21T06:52:24;97366.94;;;17.16;43.58
78073;BME280;67281;48.770;11.440;2023-03-21T06:54:50;97363.31;;;17.17;44.14
78073;BME280;67281;48.770;11.440;2023-03-21T06:57:17;97353.56;;;17.18;44.16
78073;BME280;67281;48.770;11.440;2023-03-21T06:59:46;97355.38;;;17.17;43.67
78073;BME280;67281;48.770;11.440;2023-03-21T07:02:13;97357.88;;;17.19;43.57
78073;BME280;67281;48.770;11.440;2023-03-21T07:04:39;97365.97;;;17.17;43.95
78073;BME280;67281;48.770;11.440;2023-03-21T07:07:06;97353.72;;;17.16;44.08
78073;BME280;67281;48.770;11.440;2023-03-21T07:09:33;97358.03;;;17.17;44.38
78073;BME280;67281;48.770;11.440;2023-03-21T07:12:00;97364.00;;;17.19;44.05
78073;BME280;67281;48.770;11.440;2023-03-21T07:14:27;97363.19;;;17.19;43.50
78073;BME280;67281;48.770;11.440;2023-03-21T07:16:54;97364.84;;;17.20;43.83
78073;BME280;67281;48.770;11.440;2023-03-21T07:19:21;97356.22;;;17.18;44.01
78073;BME280;67281;48.770;11.440;2023-03-21T07:21:48;97361.50;;;17.18;43.72
78073;BME280;67281;48.770;11.440;2023-03-21T07:24:14;97365.81;;;17.19;43.70
78073;BME280;67281;48.770;11.440;2023-03-21T07:26:41;97362.88;;;17.22;43.42
78073;BME280;67281;48.770;11.440;2023-03-21T07:29:08;97368.19;;;17.22;43.82
78073;BME280;67281;48.770;11.440;2023-03-21T07:31:34;97356.31;;;17.26;43.91
78073;BME280;67281;48.770;11.440;2023-03-21T07:34:02;97364.25;;;17.26;44.04
78073;BME280;67281;48.770;11.440;2023-03-21T07:36:28;97369.56;;;17.26;44.17
78073;BME280;67281;48.770;11.440;2023-03-21T07:38:56;97367.75;;;17.26;44.19
78073;BME280;67281;48.770;11.440;2023-03-21T07:41:22;97371.38;;;17.25;43.75
78073;BME280;67281;48.770;11.440;2023-03-21T07:43:49;97368.72;;;17.25;43.61
78073;BME280;67281;48.770;11.440;2023-03-21T07:46:16;97366.06;;;17.25;43.84
78073;BME280;67281;48.770;11.440;2023-03-21T07:48:43;97362.75;;;17.23;43.54
78073;BME280;67281;48.770;11.440;2023-03-21T07:51:09;97360.09;;;17.23;43.94
78073;BME280;67281;48.770;11.440;2023-03-21T07:53:36;97367.75;;;17.26;43.73
78073;BME280;67281;48.770;11.440;2023-03-21T07:56:03;97372.22;;;17.26;43.47
78073;BME280;67281;48.770;11.440;2023-03-21T07:58:31;97370.38;;;17.26;43.74
78073;BME280;67281;48.770;11.440;2023-03-21T08:00:59;97370.09;;;17.29;44.02
78073;BME280;67281;48.770;11.440;2023-03-21T08:03:27;97376.22;;;17.30;43.51
78073;BME280;67281;48.770;11.440;2023-03-21T08:05:57;97364.66;;;17.31;43.92
78073;BME280;67281;48.770;11.440;2023-03-21T08:08:27;97362.00;;;17.31;43.37
78073;BME280;67281;48.770;11.440;2023-03-21T08:10:54;97374.97;;;17.34;43.71
78073;BME280;67281;48.770;11.440;2023-03-21T08:13:20;97379.28;;;17.35;44.05
78073;BME280;67281;48.770;11.440;2023-03-21T08:15:47;97368.53;;;17.36;43.94
78073;BME280;67281;48.770;11.440;2023-03-21T08:18:14;97366.03;;;17.35;43.51
78073;BME280;67281;48.770;11.440;2023-03-21T08:20:40;97364.06;;;17.37;43.18
78073;BME280;67281;48.770;11.440;2023-03-21T08:23:07;97364.91;;;17.37;43.67
78073;BME280;67281;48.770;11.440;2023-03-21T08:25:34;97366.44;;;17.40;43.70
78073;BME280;67281;48.770;11.440;2023-03-21T08:28:02;97374.09;;;17.43;43.50
78073;BME280;67281;48.770;11.440;2023-03-21T08:30:28;97375.06;;;17.42;43.49
78073;BME280;67281;48.770;11.440;2023-03-21T08:32:57;97366.97;;;17.44;43.48
78073;BME280;67281;48.770;11.440;2023-03-21T08:35:27;97364.19;;;17.45;43.55
78073;BME280;67281;48.770;11.440;2023-03-21T08:37:54;97368.34;;;17.48;43.60
78073;BME280;67281;48.770;11.440;2023-03-21T08:40:20;97359.56;;;17.47;43.80
78073;BME280;67281;48.770;11.440;2023-03-21T08:42:47;97358.72;;;17.47;43.77
78073;BME280;67281;48.770;11.440;2023-03-21T08:45:16;97354.41;;;17.46;43.25
78073;BME280;67281;48.770;11.440;2023-03-21T08:47:43;97354.94;;;17.49;43.13
78073;BME280;67281;48.770;11.440;2023-03-21T08:50:13;97353.28;;;17.48;43.76
78073;BME280;67281;48.770;11.440;2023-03-21T08:52:41;97351.31;;;17.50;43.71
78073;BME280;67281;48.770;11.440;2023-03-21T08:55:09;97349.66;;;17.49;43.55
78073;BME280;67281;48.770;11.440;2023-03-21T08:57:37;97351.03;;;17.53;43.33
78073;BME280;67281;48.770;11.440;2023-03-21T09:00:05;97345.72;;;17.53;43.12
78073;BME280;67281;48.770;11.440;2023-03-21T09:02:40;97349.75;;;17.57;43.02
78073;BME280;67281;48.770;11.440;2023-03-21T09:05:08;97347.78;;;17.59;43.01
78073;BME280;67281;48.770;11.440;2023-03-21T09:07:38;97352.25;;;17.59;43.29
78073;BME280;67281;48.770;11.440;2023-03-21T09:10:05;97341.50;;;17.60;43.38
78073;BME280;67281;48.770;11.440;2023-03-21T09:12:49;97344.69;;;17.64;43.61
78073;BME280;67281;48.770;11.440;2023-03-21T09:15:17;97344.97;;;17.70;43.16
78073;BME280;67281;48.770;11.440;2023-03-21T09:17:50;97339.50;;;17.72;43.02
78073;BME280;67281;48.770;11.440;2023-03-21T09:20:20;97343.53;;;17.76;43.45
78073;BME280;67281;48.770;11.440;2023-03-21T09:22:52;97338.63;;;17.81;43.34
78073;BME280;67281;48.770;11.440;2023-03-21T09:25:19;97339.81;;;17.87;43.02
78073;BME280;67281;48.770;11.440;2023-03-21T09:27:46;97341.63;;;17.86;43.38
78073;BME280;67281;48.770;11.440;2023-03-21T09:30:18;97346.63;;;17.89;43.16
78073;BME280;67281;48.770;11.440;2023-03-21T09:32:46;97341.84;;;17.93;43.01
78073;BME280;67281;48.770;11.440;2023-03-21T09:35:16;97341.56;;;17.96;43.29
78073;BME280;67281;48.770;11.440;2023-03-21T09:37:45;97341.09;;;18.00;42.93
78073;BME280;67281;48.770;11.440;2023-03-21T09:43:44;97326.25;;;18.08;43.12
78073;BME280;67281;48.770;11.440;2023-03-21T09:49:05;97326.47;;;18.14;42.83
78073;BME280;67281;48.770;11.440;2023-03-21T09:51:38;97336.78;;;18.17;43.06
78073;BME280;67281;48.770;11.440;2023-03-21T09:54:17;97332.16;;;18.19;42.57
78073;BME280;67281;48.770;11.440;2023-03-21T09:56:45;97331.84;;;18.22;42.07
78073;BME280;67281;48.770;11.440;2023-03-21T09:59:20;97328.22;;;18.23;42.81
78073;BME280;67281;48.770;11.440;2023-03-21T10:01:48;97331.53;;;18.25;42.31
78073;BME280;67281;48.770;11.440;2023-03-21T10:04:18;97323.22;;;18.20;42.64
78073;BME280;67281;48.770;11.440;2023-03-21T10:06:52;97324.72;;;18.23;42.58
78073;BME280;67281;48.770;11.440;2023-03-21T10:09:21;97330.03;;;18.23;42.86
78073;BME280;67281;48.770;11.440;2023-03-21T10:11:56;97325.94;;;18.28;42.53
78073;BME280;67281;48.770;11.440;2023-03-21T10:14:45;97321.00;;;18.33;42.75
78073;BME280;67281;48.770;11.440;2023-03-21T10:17:26;97320.38;;;18.39;42.11
78073;BME280;67281;48.770;11.440;2023-03-21T10:20:23;97312.44;;;18.39;42.63
78073;BME280;67281;48.770;11.440;2023-03-21T10:22:53;97310.75;;;18.38;42.74
78073;BME280;67281;48.770;11.440;2023-03-21T10:25:27;97309.25;;;18.36;42.38
78073;BME280;67281;48.770;11.440;2023-03-21T10:27:56;97310.75;;;18.38;42.34
78073;BME280;67281;48.770;11.440;2023-03-21T10:30:28;97302.34;;;18.43;42.51
78073;BME280;67281;48.770;11.440;2023-03-21T10:33:01;97311.34;;;18.50;42.73
78073;BME280;67281;48.770;11.440;2023-03-21T10:35:32;97294.81;;;18.56;42.44
78073;BME280;67281;48.770;11.440;2023-03-21T10:38:00;97289.31;;;18.58;42.44
78073;BME280;67281;48.770;11.440;2023-03-21T10:40:27;97288.19;;;18.60;42.13
78073;BME280;67281;48.770;11.440;2023-03-21T10:42:55;97285.06;;;18.65;42.35
78073;BME280;67281;48.770;11.440;2023-03-21T10:45:23;97286.25;;;18.70;42.56
78073;BME280;67281;48.770;11.440;2023-03-21T10:47:50;97287.47;;;18.76;41.84
78073;BME280;67281;48.770;11.440;2023-03-21T10:50:19;97277.34;;;18.80;41.92
78073;BME280;67281;48.770;11.440;2023-03-21T10:52:55;97271.72;;;18.83;42.08
78073;BME280;67281;48.770;11.440;2023-03-21T10:55:30;97275.75;;;18.87;42.23
78073;BME280;67281;48.770;11.440;2023-03-21T10:58:02;97272.75;;;18.90;41.69
78073;BME280;67281;48.770;11.440;2023-03-21T11:00:36;97272.44;;;18.93;42.17
78073;BME280;67281;48.770;11.440;2023-03-21T11:03:04;97272.97;;;18.96;42.22
78073;BME280;67281;48.770;11.440;2023-03-21T11:05:37;97266.34;;;19.00;42.41
78073;BME280;67281;48.770;11.440;2023-03-21T11:08:10;97263.38;;;19.03;41.77
78073;BME280;67281;48.770;11.440;2023-03-21T11:13:32;97254.75;;;19.10;42.39
78073;BME280;67281;48.770;11.440;2023-03-21T11:16:12;97247.47;;;19.12;42.02
78073;BME280;67281;48.770;11.440;2023-03-21T11:18:49;97256.78;;;19.16;42.46
78073;BME280;67281;48.770;11.440;2023-03-21T11:21:16;97253.81;;;19.19;42.01
78073;BME280;67281;48.770;11.440;2023-03-21T11:23:48;97252.31;;;19.24;41.95
78073;BME280;67281;48.770;11.440;2023-03-21T11:26:19;97249.34;;;19.27;42.49
78073;BME280;67281;48.770;11.440;2023-03-21T11:28:50;97249.03;;;19.30;42.08
78073;BME280;67281;48.770;11.440;2023-03-21T11:31:17;97238.88;;;19.34;41.81
78073;BME280;67281;48.770;11.440;2023-03-21T11:33:53;97247.50;;;19.36;42.22
78073;BME280;67281;48.770;11.440;2023-03-21T11:41:34;97238.25;;;19.48;42.29
78073;BME280;67281;48.770;11.440;2023-03-21T11:44:02;97232.16;;;19.56;42.42
78073;BME280;67281;48.770;11.440;2023-03-21T11:46:30;97223.84;;;19.59;42.41
78073;BME280;67281;48.770;11.440;2023-03-21T11:48:58;97225.84;;;19.65;42.09
78073;BME280;67281;48.770;11.440;2023-03-21T11:54:05;97230.16;;;19.66;42.36
78073;BME280;67281;48.770;11.440;2023-03-21T11:56:43;97208.91;;;19.66;41.97
78073;BME280;67281;48.770;11.440;2023-03-21T12:10:34;97197.44;;;19.82;42.95
78073;BME280;67281;48.770;11.440;2023-03-21T12:21:19;97186.81;;;19.98;42.11
78073;BME280;67281;48.770;11.440;2023-03-21T12:26:28;97185.59;;;20.09;42.48
78073;BME280;67281;48.770;11.440;2023-03-21T12:34:52;97165.97;;;20.18;42.85
78073;BME280;67281;48.770;11.440;2023-03-21T12:37:41;97168.28;;;20.21;42.31
78073;BME280;67281;48.770;11.440;2023-03-21T12:43:12;97151.13;;;20.31;42.64
78073;BME280;67281;48.770;11.440;2023-03-21T12:45:50;97149.47;;;20.39;42.30
78073;BME280;67281;48.770;11.440;2023-03-21T12:48:50;97152.63;;;20.42;42.19
78073;BME280;67281;48.770;11.440;2023-03-21T12:51:28;97148.97;;;20.43;42.94
78073;BME280;67281;48.770;11.440;2023-03-21T12:57:00;97142.16;;;20.41;43.00
78073;BME280;67281;48.770;11.440;2023-03-21T12:59:33;97134.81;;;20.43;42.76
78073;BME280;67281;48.770;11.440;2023-03-21T13:02:25;97133.81;;;20.52;42.71
78073;BME280;67281;48.770;11.440;2023-03-21T13:05:19;97126.47;;;20.54;42.70
78073;BME280;67281;48.770;11.440;2023-03-21T13:07:52;97127.31;;;20.46;42.43
78073;BME280;67281;48.770;11.440;2023-03-21T13:10:20;97128.13;;;20.55;41.40
78073;BME280;67281;48.770;11.440;2023-03-21T13:13:00;97114.78;;;20.63;41.67
78073;BME280;67281;48.770;11.440;2023-03-21T13:20:53;97112.44;;;20.68;41.14
78073;BME280;67281;48.770;11.440;2023-03-21T13:23:22;97118.41;;;20.70;41.42
78073;BME280;67281;48.770;11.440;2023-03-21T13:25:52;97110.06;;;20.73;41.22
78073;BME280;67281;48.770;11.440;2023-03-21T13:28:28;97105.41;;;20.75;41.09
78073;BME280;67281;48.770;11.440;2023-03-21T13:31:17;97098.06;;;20.77;41.07
78073;BME280;67281;48.770;11.440;2023-03-21T13:33:50;97099.91;;;20.77;41.61
78073;BME280;67281;48.770;11.440;2023-03-21T13:36:24;97087.25;;;20.79;41.53
78073;BME280;67281;48.770;11.440;2023-03-21T13:38:58;97087.03;;;20.80;41.00
78073;BME280;67281;48.770;11.440;2023-03-21T13:41:42;97083.19;;;20.83;41.63
78073;BME280;67281;48.770;11.440;2023-03-21T13:44:22;97085.69;;;20.84;41.73
78073;BME280;67281;48.770;11.440;2023-03-21T13:46:53;97087.81;;;20.89;41.73
78073;BME280;67281;48.770;11.440;2023-03-21T13:49:35;97081.31;;;20.91;41.67
78073;BME280;67281;48.770;11.440;2023-03-21T13:57:06;97079.13;;;20.95;41.86
78073;BME280;67281;48.770;11.440;2023-03-21T13:59:46;97078.59;;;20.99;41.46
78073;BME280;67281;48.770;11.440;2023-03-21T14:02:22;97078.59;;;20.99;41.60
78073;BME280;67281;48.770;11.440;2023-03-21T14:04:55;97070.78;;;20.98;41.39
78073;BME280;67281;48.770;11.440;2023-03-21T14:07:33;97075.75;;;21.01;41.93
78073;BME280;67281;48.770;11.440;2023-03-21T14:10:12;97077.06;;;21.05;41.78
78073;BME280;67281;48.770;11.440;2023-03-21T14:12:44;97077.25;;;21.04;42.14
78073;BME280;67281;48.770;11.440;2023-03-21T14:15:23;97066.75;;;21.02;41.51
78073;BME280;67281;48.770;11.440;2023-03-21T14:17:59;97076.22;;;21.05;42.00
78073;BME280;67281;48.770;11.440;2023-03-21T14:20:54;97068.72;;;21.08;42.11
78073;BME280;67281;48.770;11.440;2023-03-21T14:23:23;97056.63;;;20.97;42.00
78073;BME280;67281;48.770;11.440;2023-03-21T14:25:51;97059.00;;;20.92;42.61
78073;BME280;67281;48.770;11.440;2023-03-21T14:28:21;97055.03;;;20.88;42.23
78073;BME280;67281;48.770;11.440;2023-03-21T14:30:55;97045.56;;;20.86;42.36
78073;BME280;67281;48.770;11.440;2023-03-21T14:33:34;97047.38;;;20.85;42.01
78073;BME280;67281;48.770;11.440;2023-03-21T14:36:09;97052.53;;;20.87;42.03
78073;BME280;67281;48.770;11.440;2023-03-21T14:38:39;97047.38;;;20.85;42.80
78073;BME280;67281;48.770;11.440;2023-03-21T14:41:27;97048.03;;;20.87;42.01